createdAt,value
2019-04-10T00:02:29.288Z,12.90
2019-04-10T00:04:57.679Z,12.90
2019-04-10T00:07:25.996Z,12.90
2019-04-10T00:09:55.127Z,12.90
2019-04-10T00:12:23.661Z,12.90
2019-04-10T00:14:52.549Z,12.90
2019-04-10T00:17:20.979Z,12.90
2019-04-10T00:19:49.313Z,12.90
2019-04-10T00:22:17.996Z,12.80
2019-04-10T00:24:46.486Z,12.80
2019-04-10T00:27:14.761Z,12.80
2019-04-10T00:29:43.003Z,12.80
2019-04-10T00:32:11.945Z,12.80
2019-04-10T00:34:40.334Z,12.80
2019-04-10T00:37:21.292Z,12.70
2019-04-10T00:39:38.991Z,12.70
2019-04-10T00:42:08.418Z,12.70
2019-04-10T00:44:37.513Z,12.70
2019-04-10T00:47:06.583Z,12.70
2019-04-10T00:49:35.029Z,12.70
2019-04-10T00:52:03.874Z,12.70
2019-04-10T00:54:33.062Z,12.70
2019-04-10T00:57:01.429Z,12.70
2019-04-10T00:59:30.380Z,12.70
2019-04-10T01:01:58.713Z,12.70
2019-04-10T01:04:27.025Z,12.70
2019-04-10T01:06:55.345Z,12.70
2019-04-10T01:09:23.729Z,12.70
2019-04-10T01:11:52.146Z,12.60
2019-04-10T01:14:21.277Z,12.60
2019-04-10T01:16:49.770Z,12.60
2019-04-10T01:19:18.020Z,12.60
2019-04-10T01:21:46.482Z,12.60
2019-04-10T01:24:14.835Z,12.60
2019-04-10T01:26:43.316Z,12.60
2019-04-10T01:29:11.683Z,12.60
2019-04-10T01:31:39.926Z,12.60
2019-04-10T01:34:09.361Z,12.60
2019-04-10T01:36:37.848Z,12.60
2019-04-10T01:39:08.750Z,12.60
2019-04-10T01:41:37.204Z,12.50
2019-04-10T01:44:05.705Z,12.40
2019-04-10T01:46:35.831Z,12.40
2019-04-10T01:49:05.070Z,12.40
2019-04-10T01:51:33.688Z,12.40
2019-04-10T01:54:02.690Z,12.40
2019-04-10T01:56:33.716Z,12.40
2019-04-10T01:59:01.368Z,12.40
2019-04-10T02:01:32.457Z,12.40
2019-04-10T02:04:00.881Z,12.40
2019-04-10T02:06:29.453Z,12.40
2019-04-10T02:08:58.354Z,12.40
2019-04-10T02:11:27.977Z,12.40
2019-04-10T02:13:56.832Z,12.40
2019-04-10T02:16:25.616Z,12.40
2019-04-10T02:18:54.147Z,12.40
2019-04-10T02:21:23.438Z,12.40
2019-04-10T02:23:52.407Z,12.30
2019-04-10T02:26:21.317Z,12.30
2019-04-10T02:28:49.726Z,12.30
2019-04-10T02:31:19.153Z,12.40
2019-04-10T02:33:49.542Z,12.40
2019-04-10T02:36:19.392Z,12.40
2019-04-10T02:38:59.645Z,12.30
2019-04-10T02:41:19.240Z,12.30
2019-04-10T02:43:47.659Z,12.20
2019-04-10T02:46:15.919Z,12.20
2019-04-10T02:48:44.649Z,12.30
2019-04-10T02:51:13.700Z,12.20
2019-04-10T02:53:43.699Z,12.20
2019-04-10T02:56:13.527Z,12.20
2019-04-10T02:58:42.695Z,12.20
2019-04-10T03:01:11.370Z,12.20
2019-04-10T03:03:40.338Z,12.10
2019-04-10T03:06:09.233Z,12.10
2019-04-10T03:08:55.236Z,12.10
2019-04-10T03:11:11.586Z,12.10
2019-04-10T03:13:38.141Z,12.10
2019-04-10T03:16:07.538Z,12.10
2019-04-10T03:18:36.846Z,12.00
2019-04-10T03:21:05.162Z,12.00
2019-04-10T03:23:33.631Z,12.10
2019-04-10T03:26:02.091Z,12.10
2019-04-10T03:28:31.984Z,12.10
2019-04-10T03:31:02.271Z,12.00
2019-04-10T03:33:34.867Z,11.90
2019-04-10T03:36:03.103Z,11.90
2019-04-10T03:38:32.174Z,11.90
2019-04-10T03:41:00.507Z,11.90
2019-04-10T03:43:29.874Z,11.90
2019-04-10T03:45:59.120Z,11.90
2019-04-10T03:48:27.607Z,11.90
2019-04-10T03:50:57.123Z,11.90
2019-04-10T03:53:26.436Z,11.80
2019-04-10T03:55:54.747Z,11.90
2019-04-10T03:58:23.191Z,11.90
2019-04-10T04:00:52.195Z,11.90
2019-04-10T04:03:20.668Z,11.90
2019-04-10T04:05:48.977Z,11.90
2019-04-10T04:08:17.254Z,12.00
2019-04-10T04:10:45.528Z,12.00
2019-04-10T04:13:13.772Z,12.00
2019-04-10T04:15:42.188Z,12.00
2019-04-10T04:18:10.937Z,12.00
2019-04-10T04:20:39.295Z,12.10
2019-04-10T04:23:07.554Z,12.10
2019-04-10T04:25:36.605Z,12.10
2019-04-10T04:28:05.006Z,12.10
2019-04-10T04:30:34.075Z,12.10
2019-04-10T04:33:02.538Z,12.10
2019-04-10T04:35:31.278Z,12.10
2019-04-10T04:38:00.453Z,12.10
2019-04-10T04:40:29.951Z,12.10
2019-04-10T04:42:58.434Z,12.10
2019-04-10T04:45:27.614Z,12.10
2019-04-10T04:47:56.207Z,12.10
2019-04-10T04:50:24.719Z,12.10
2019-04-10T04:52:53.664Z,12.10
2019-04-10T04:55:22.027Z,12.10
2019-04-10T04:57:50.284Z,12.00
2019-04-10T05:00:18.618Z,12.00
2019-04-10T05:02:47.066Z,12.00
2019-04-10T05:05:16.415Z,12.00
2019-04-10T05:07:54.741Z,12.00
2019-04-10T05:10:15.385Z,12.00
2019-04-10T05:12:43.823Z,11.90
2019-04-10T05:15:12.976Z,11.90
2019-04-10T05:17:41.600Z,11.90
2019-04-10T05:20:09.923Z,11.90
2019-04-10T05:22:38.189Z,11.90
2019-04-10T05:25:06.927Z,11.90
2019-04-10T05:27:35.308Z,11.90
2019-04-10T05:30:06.205Z,11.90
2019-04-10T05:32:35.366Z,11.80
2019-04-10T05:35:07.407Z,11.80
2019-04-10T05:37:35.904Z,11.80
2019-04-10T05:40:07.575Z,11.80
2019-04-10T05:42:36.019Z,11.80
2019-04-10T05:45:07.051Z,11.90
2019-04-10T05:47:36.533Z,11.90
2019-04-10T05:50:06.146Z,11.90
2019-04-10T05:52:35.338Z,11.90
2019-04-10T05:55:04.284Z,11.90
2019-04-10T05:57:32.902Z,11.90
2019-04-10T06:00:01.323Z,11.90
2019-04-10T06:02:29.963Z,11.90
2019-04-10T06:04:58.396Z,11.90
2019-04-10T06:07:27.356Z,11.90
2019-04-10T06:10:02.013Z,12.00
2019-04-10T06:12:26.484Z,12.00
2019-04-10T06:14:54.774Z,12.00
2019-04-10T06:17:23.048Z,12.00
2019-04-10T06:19:51.343Z,12.00
2019-04-10T06:22:20.746Z,12.00
2019-04-10T06:24:49.147Z,12.10
2019-04-10T06:27:18.420Z,12.10
2019-04-10T06:29:47.661Z,12.10
2019-04-10T06:32:17.063Z,12.10
2019-04-10T06:34:46.062Z,12.10
2019-04-10T06:37:15.662Z,12.10
2019-04-10T06:39:44.998Z,12.10
2019-04-10T06:42:14.292Z,12.20
2019-04-10T06:44:42.603Z,12.20
2019-04-10T06:47:11.947Z,12.20
2019-04-10T06:49:40.676Z,12.20
2019-04-10T06:52:10.056Z,12.30
2019-04-10T06:54:38.571Z,12.30
2019-04-10T06:57:06.888Z,12.30
2019-04-10T06:59:35.183Z,12.30
2019-04-10T07:02:18.517Z,12.30
2019-04-10T07:04:44.241Z,12.30
2019-04-10T07:07:09.378Z,12.30
2019-04-10T07:09:33.832Z,12.30
2019-04-10T07:12:04.223Z,12.30
2019-04-10T07:14:35.098Z,12.30
2019-04-10T07:17:05.534Z,12.30
2019-04-10T07:19:32.422Z,12.30
2019-04-10T07:22:01.880Z,12.30
2019-04-10T07:24:34.527Z,12.40
2019-04-10T07:27:03.363Z,12.40
2019-04-10T07:29:31.139Z,12.40
2019-04-10T07:32:00.468Z,12.40
2019-04-10T07:34:29.950Z,12.50
2019-04-10T07:36:58.408Z,12.50
2019-04-10T07:39:29.512Z,12.50
2019-04-10T07:41:57.738Z,12.60
2019-04-10T07:44:26.241Z,12.60
2019-04-10T07:46:58.309Z,12.60
2019-04-10T07:49:29.652Z,12.60
2019-04-10T07:51:56.545Z,12.60
2019-04-10T07:54:24.926Z,12.70
2019-04-10T07:56:53.166Z,12.60
2019-04-10T07:59:21.650Z,12.70
2019-04-10T08:01:50.072Z,12.70
2019-04-10T08:04:18.361Z,12.70
2019-04-10T08:06:46.879Z,12.70
2019-04-10T08:09:15.216Z,12.80
2019-04-10T08:11:45.137Z,12.80
2019-04-10T08:14:13.388Z,12.80
2019-04-10T08:16:41.632Z,12.70
2019-04-10T08:19:10.407Z,12.70
2019-04-10T08:21:38.820Z,12.60
2019-04-10T08:24:07.398Z,12.60
2019-04-10T08:26:36.667Z,12.50
2019-04-10T08:29:05.727Z,12.50
2019-04-10T08:31:34.238Z,12.50
2019-04-10T08:34:03.282Z,12.50
2019-04-10T08:36:31.886Z,12.50
2019-04-10T08:39:00.398Z,12.50
2019-04-10T08:41:29.628Z,12.50
2019-04-10T08:43:58.879Z,12.50
2019-04-10T08:46:28.151Z,12.50
2019-04-10T08:48:56.493Z,12.40
2019-04-10T08:51:25.659Z,12.40
2019-04-10T08:53:55.625Z,12.40
2019-04-10T08:56:24.764Z,12.40
2019-04-10T08:58:53.109Z,12.40
2019-04-10T09:01:21.456Z,12.50
2019-04-10T09:03:51.509Z,12.50
2019-04-10T09:06:19.943Z,12.50
2019-04-10T09:08:48.921Z,12.50
2019-04-10T09:11:24.650Z,12.50
2019-04-10T09:13:47.226Z,12.50
2019-04-10T09:16:15.488Z,12.50
2019-04-10T09:18:43.740Z,12.50
2019-04-10T09:21:13.220Z,12.50
2019-04-10T09:23:47.293Z,12.50
2019-04-10T09:26:11.903Z,12.40
2019-04-10T09:28:40.265Z,12.40
2019-04-10T09:31:09.343Z,12.40
2019-04-10T09:33:38.951Z,12.40
2019-04-10T09:36:07.363Z,12.40
2019-04-10T09:38:36.840Z,12.40
2019-04-10T09:41:05.694Z,12.40
2019-04-10T09:43:34.086Z,12.40
2019-04-10T09:46:02.410Z,12.40
2019-04-10T09:48:31.611Z,12.50
2019-04-10T09:51:00.325Z,12.50
2019-04-10T09:53:28.797Z,12.50
2019-04-10T09:55:57.084Z,12.50
2019-04-10T09:58:26.190Z,12.50
2019-04-10T10:00:55.007Z,12.50
2019-04-10T10:03:24.125Z,12.50
2019-04-10T10:05:53.091Z,12.60
2019-04-10T10:08:22.544Z,12.60
2019-04-10T10:10:50.897Z,12.60
2019-04-10T10:13:19.306Z,12.60
2019-04-10T10:15:47.542Z,12.70
2019-04-10T10:18:15.813Z,12.70
2019-04-10T10:20:44.083Z,12.80
2019-04-10T10:23:12.314Z,12.80
2019-04-10T10:25:41.514Z,12.80
2019-04-10T10:28:11.713Z,12.80
2019-04-10T10:30:39.837Z,12.90
2019-04-10T10:33:08.127Z,12.90
2019-04-10T10:35:36.372Z,12.90
2019-04-10T10:38:05.402Z,12.90
2019-04-10T10:40:34.026Z,12.90
2019-04-10T10:43:02.535Z,13.00
2019-04-10T10:45:31.143Z,13.00
2019-04-10T10:47:59.512Z,13.00
2019-04-10T10:50:28.919Z,13.00
2019-04-10T10:52:57.609Z,13.10
2019-04-10T10:55:25.955Z,13.10
2019-04-10T10:57:55.337Z,13.10
2019-04-10T11:00:23.770Z,13.20
2019-04-10T11:02:52.034Z,13.10
2019-04-10T11:05:21.127Z,13.10
2019-04-10T11:07:49.456Z,13.10
2019-04-10T11:10:23.669Z,13.10
2019-04-10T11:12:48.372Z,13.10
2019-04-10T11:15:16.798Z,13.10
2019-04-10T11:17:46.062Z,13.10
2019-04-10T11:20:15.264Z,13.10
2019-04-10T11:22:43.613Z,13.20
2019-04-10T11:25:12.261Z,13.10
2019-04-10T11:27:42.093Z,13.20
2019-04-10T11:30:12.521Z,13.20
2019-04-10T11:32:42.255Z,13.20
2019-04-10T11:35:11.181Z,13.20
2019-04-10T11:37:44.588Z,13.20
2019-04-10T11:40:09.522Z,13.20
2019-04-10T11:42:39.782Z,13.20
2019-04-10T11:45:08.246Z,13.20
2019-04-10T11:47:38.859Z,13.20
2019-04-10T11:50:13.065Z,13.20
2019-04-10T11:52:42.519Z,13.20
2019-04-10T11:55:13.912Z,13.20
2019-04-10T11:57:37.876Z,13.20
2019-04-10T12:00:12.035Z,13.20
2019-04-10T12:02:39.435Z,13.20
2019-04-10T12:05:12.016Z,13.20
2019-04-10T12:08:00.512Z,13.20
2019-04-10T12:12:37.821Z,13.20
2019-04-10T12:15:08.029Z,13.20
2019-04-10T12:17:36.386Z,13.20
2019-04-10T12:20:06.937Z,13.20
2019-04-10T12:22:35.874Z,13.20
2019-04-10T12:25:05.639Z,13.20
2019-04-10T12:27:35.232Z,13.20
2019-04-10T12:30:06.852Z,13.20
2019-04-10T12:32:36.974Z,13.20
2019-04-10T12:35:06.852Z,13.20
2019-04-10T12:37:37.133Z,13.30
2019-04-10T12:40:07.344Z,13.30
2019-04-10T12:42:36.549Z,13.40
2019-04-10T12:45:06.226Z,13.40
2019-04-10T12:47:34.762Z,13.50
2019-04-10T12:50:05.711Z,13.50
2019-04-10T12:52:34.564Z,13.60
2019-04-10T12:55:03.935Z,13.60
2019-04-10T12:57:32.282Z,13.70
2019-04-10T13:00:04.033Z,13.70
2019-04-10T13:02:30.548Z,13.70
2019-04-10T13:04:58.842Z,13.70
2019-04-10T13:07:27.613Z,13.70
2019-04-10T13:09:55.996Z,13.60
2019-04-10T13:12:25.055Z,13.60
2019-04-10T13:14:53.437Z,13.60
2019-04-10T13:17:22.693Z,13.60
2019-04-10T13:19:51.410Z,13.50
2019-04-10T13:22:20.131Z,13.50
2019-04-10T13:24:48.438Z,13.50
2019-04-10T13:27:16.806Z,13.50
2019-04-10T13:29:45.051Z,13.50
2019-04-10T13:32:13.901Z,13.40
2019-04-10T13:34:42.341Z,13.40
2019-04-10T13:37:10.609Z,13.40
2019-04-10T13:39:39.245Z,13.40
2019-04-10T13:42:09.192Z,13.40
2019-04-10T13:44:38.392Z,13.30
2019-04-10T13:47:07.106Z,13.30
2019-04-10T13:49:35.743Z,13.30
2019-04-10T13:52:04.121Z,13.30
2019-04-10T13:54:32.585Z,13.30
2019-04-10T13:57:01.503Z,13.30
2019-04-10T13:59:31.062Z,13.30
2019-04-10T14:02:00.554Z,13.30
2019-04-10T14:04:31.243Z,13.30
2019-04-10T14:06:59.783Z,13.30
2019-04-10T14:09:35.878Z,13.30
2019-04-10T14:11:58.133Z,13.30
2019-04-10T14:14:26.726Z,13.30
2019-04-10T14:16:55.170Z,13.30
2019-04-10T14:19:23.787Z,13.30
2019-04-10T14:21:55.741Z,13.30
2019-04-10T14:24:24.950Z,13.30
2019-04-10T14:26:56.631Z,13.40
2019-04-10T14:29:25.289Z,13.40
2019-04-10T14:31:55.221Z,13.40
2019-04-10T14:34:23.469Z,13.40
2019-04-10T14:36:52.634Z,13.40
2019-04-10T14:39:21.778Z,13.40
2019-04-10T14:44:42.873Z,13.40
2019-04-10T14:47:13.336Z,13.50
2019-04-10T14:49:41.091Z,13.50
2019-04-10T14:52:10.655Z,13.50
2019-04-10T14:54:39.744Z,13.50
2019-04-10T14:57:08.095Z,13.50
2019-04-10T14:59:40.010Z,13.50
2019-04-10T15:02:10.562Z,13.50
2019-04-10T15:04:39.533Z,13.50
2019-04-10T15:07:08.135Z,13.50
2019-04-10T15:09:38.138Z,13.50
2019-04-10T15:12:07.274Z,13.50
2019-04-10T15:14:37.480Z,13.50
2019-04-10T15:17:06.608Z,13.50
2019-04-10T15:19:36.425Z,13.50
2019-04-10T15:22:04.949Z,13.50
2019-04-10T15:24:33.349Z,13.50
2019-04-10T15:27:02.742Z,13.50
2019-04-10T15:29:33.493Z,13.50
2019-04-10T15:32:06.338Z,13.40
2019-04-10T15:34:39.600Z,13.40
2019-04-10T15:37:08.861Z,13.40
2019-04-10T15:39:46.428Z,13.30
2019-04-10T15:45:08.434Z,13.30
2019-04-10T15:47:37.448Z,13.30
2019-04-10T15:50:07.155Z,13.30
2019-04-10T15:52:37.475Z,13.30
2019-04-10T15:55:05.980Z,13.40
2019-04-10T15:57:47.039Z,13.30
2019-04-10T16:00:08.630Z,13.30
2019-04-10T16:02:37.029Z,13.30
2019-04-10T16:05:07.110Z,13.30
2019-04-10T16:07:36.280Z,13.30
2019-04-10T16:10:13.494Z,13.40
2019-04-10T16:12:41.788Z,13.40
2019-04-10T16:18:01.797Z,13.40
2019-04-10T16:20:31.758Z,13.40
2019-04-10T16:23:10.728Z,13.40
2019-04-10T16:25:40.711Z,13.40
2019-04-10T16:28:11.040Z,13.30
2019-04-10T16:30:39.052Z,13.30
2019-04-10T16:33:07.322Z,13.30
2019-04-10T16:35:36.910Z,13.30
2019-04-10T16:38:06.911Z,13.30
2019-04-10T16:40:36.154Z,13.30
2019-04-10T16:43:06.103Z,13.30
2019-04-10T16:45:34.876Z,13.30
2019-04-10T16:48:03.463Z,13.20
2019-04-10T16:50:34.173Z,13.20
2019-04-10T16:53:03.357Z,13.20
2019-04-10T16:55:32.572Z,13.20
2019-04-10T16:58:01.251Z,13.20
2019-04-10T17:00:29.739Z,13.20
2019-04-10T17:02:57.990Z,13.20
2019-04-10T17:05:26.388Z,13.20
2019-04-10T17:07:55.279Z,13.20
2019-04-10T17:10:27.361Z,13.20
2019-04-10T17:12:55.603Z,13.20
2019-04-10T17:15:24.081Z,13.20
2019-04-10T17:17:55.015Z,13.10
2019-04-10T17:20:24.485Z,13.10
2019-04-10T17:22:54.256Z,13.10
2019-04-10T17:25:32.102Z,13.10
2019-04-10T17:28:01.655Z,13.00
2019-04-10T17:30:30.192Z,13.00
2019-04-10T17:32:58.452Z,13.00
2019-04-10T17:35:27.561Z,13.00
2019-04-10T17:37:56.203Z,13.00
2019-04-10T17:40:33.099Z,13.00
2019-04-10T17:42:54.909Z,13.00
2019-04-10T17:45:25.462Z,13.00
2019-04-10T17:47:56.460Z,13.00
2019-04-10T17:50:25.276Z,13.00
2019-04-10T17:52:53.725Z,13.00
2019-04-10T17:55:23.095Z,13.00
2019-04-10T17:57:54.385Z,13.00
2019-04-10T18:00:43.180Z,13.00
2019-04-10T18:03:13.027Z,12.90
2019-04-10T18:05:42.583Z,13.00
2019-04-10T18:08:11.107Z,13.00
2019-04-10T18:10:46.508Z,13.00
2019-04-10T18:13:09.432Z,13.00
2019-04-10T18:15:37.935Z,13.00
2019-04-10T18:18:07.325Z,13.00
2019-04-10T18:20:36.039Z,12.90
2019-04-10T18:23:04.376Z,13.00
2019-04-10T18:25:32.675Z,12.90
2019-04-10T18:28:01.199Z,12.90
2019-04-10T18:30:31.675Z,12.90
2019-04-10T18:33:00.229Z,12.90
2019-04-10T18:35:28.916Z,13.00
2019-04-10T18:37:58.641Z,13.00
2019-04-10T18:40:27.494Z,13.00
2019-04-10T18:42:58.104Z,13.00
2019-04-10T18:45:27.924Z,13.00
2019-04-10T18:47:56.481Z,13.00
2019-04-10T18:50:24.974Z,12.90
2019-04-10T18:52:53.948Z,12.90
2019-04-10T18:55:22.572Z,12.80
2019-04-10T18:57:51.428Z,12.80
2019-04-10T19:00:34.420Z,12.80
2019-04-10T19:03:07.558Z,12.80
2019-04-10T19:05:38.379Z,12.80
2019-04-10T19:08:07.057Z,12.70
2019-04-10T19:10:36.519Z,12.70
2019-04-10T19:13:05.550Z,12.70
2019-04-10T19:15:35.001Z,12.70
2019-04-10T19:18:03.694Z,12.70
2019-04-10T19:20:33.073Z,12.70
2019-04-10T19:23:01.495Z,12.60
2019-04-10T19:25:30.253Z,12.70
2019-04-10T19:27:58.765Z,12.70
2019-04-10T19:30:47.669Z,12.60
2019-04-10T19:33:16.222Z,12.60
2019-04-10T19:35:45.522Z,12.60
2019-04-10T19:38:13.883Z,12.60
2019-04-10T19:40:42.146Z,12.60
2019-04-10T19:43:10.508Z,12.50
2019-04-10T19:45:39.785Z,12.50
2019-04-10T19:48:08.997Z,12.50
2019-04-10T19:50:37.429Z,12.50
2019-04-10T19:53:05.736Z,12.40
2019-04-10T19:55:34.014Z,12.50
2019-04-10T19:58:02.280Z,12.40
2019-04-10T20:00:32.696Z,12.40
2019-04-10T20:03:01.504Z,12.40
2019-04-10T20:05:30.026Z,12.40
2019-04-10T20:07:59.530Z,12.40
2019-04-10T20:10:28.020Z,12.40
2019-04-10T20:12:57.212Z,12.40
2019-04-10T20:15:26.680Z,12.40
2019-04-10T20:17:55.186Z,12.30
2019-04-10T20:20:23.580Z,12.40
2019-04-10T20:22:51.878Z,12.30
2019-04-10T20:25:20.144Z,12.30
2019-04-10T20:27:48.469Z,12.30
2019-04-10T20:30:17.429Z,12.30
2019-04-10T20:32:46.082Z,12.20
2019-04-10T20:35:14.464Z,12.20
2019-04-10T20:37:42.992Z,12.20
2019-04-10T20:40:11.919Z,12.20
2019-04-10T20:42:40.463Z,12.20
2019-04-10T20:45:09.339Z,12.30
2019-04-10T20:47:37.771Z,12.20
2019-04-10T20:50:06.017Z,12.20
2019-04-10T20:52:34.674Z,12.20
2019-04-10T20:55:05.683Z,12.20
2019-04-10T20:57:35.262Z,12.10
2019-04-10T21:00:07.269Z,12.20
2019-04-10T21:02:36.215Z,12.10
2019-04-10T21:05:09.568Z,12.10
2019-04-10T21:07:37.375Z,12.10
2019-04-10T21:10:06.708Z,12.10
2019-04-10T21:12:35.012Z,12.10
2019-04-10T21:15:03.935Z,12.10
2019-04-10T21:17:42.330Z,12.10
2019-04-10T21:20:13.138Z,12.00
2019-04-10T21:22:40.776Z,12.00
2019-04-10T21:25:10.197Z,12.00
2019-04-10T21:27:39.662Z,12.00
2019-04-10T21:30:15.875Z,12.00
2019-04-10T21:32:49.547Z,12.00
2019-04-10T21:35:27.053Z,12.00
2019-04-10T21:37:55.526Z,12.00
2019-04-10T21:40:23.789Z,12.00
2019-04-10T21:42:52.069Z,12.00
2019-04-10T21:45:20.344Z,11.90
2019-04-10T21:47:48.660Z,11.90
2019-04-10T21:50:17.135Z,11.90
2019-04-10T21:52:47.592Z,11.90
2019-04-10T21:55:16.988Z,11.90
2019-04-10T21:57:45.441Z,11.90
2019-04-10T22:00:14.867Z,11.90
2019-04-10T22:02:45.009Z,11.90
2019-04-10T22:05:14.254Z,11.80
2019-04-10T22:07:50.319Z,11.80
2019-04-10T22:10:23.897Z,11.80
2019-04-10T22:12:52.739Z,11.80
2019-04-10T22:15:37.776Z,11.80
2019-04-10T22:18:07.172Z,11.80
2019-04-10T22:20:36.017Z,11.80
2019-04-10T22:23:04.438Z,11.80
2019-04-10T22:25:32.715Z,11.80
2019-04-10T22:28:01.049Z,11.80
2019-04-10T22:30:29.567Z,11.90
2019-04-10T22:32:57.939Z,11.80
2019-04-10T22:35:26.205Z,11.80
2019-04-10T22:37:54.508Z,11.80
2019-04-10T22:40:23.650Z,11.80
2019-04-10T22:42:53.171Z,11.80
2019-04-10T22:45:27.395Z,11.80
2019-04-10T22:47:56.353Z,11.70
2019-04-10T22:50:24.630Z,11.80
2019-04-10T22:52:52.963Z,11.80
2019-04-10T22:55:21.818Z,11.70
2019-04-10T22:57:50.567Z,11.80
2019-04-10T23:00:20.621Z,11.70
2019-04-10T23:02:49.191Z,11.70
2019-04-10T23:05:18.371Z,11.70
2019-04-10T23:07:47.226Z,11.70
2019-04-10T23:10:15.721Z,11.70
2019-04-10T23:12:52.277Z,11.70
2019-04-10T23:15:13.979Z,11.70
2019-04-10T23:17:43.185Z,11.70
2019-04-10T23:20:11.572Z,11.70
2019-04-10T23:22:41.059Z,11.60
2019-04-10T23:25:10.010Z,11.60
2019-04-10T23:27:38.448Z,11.60
2019-04-10T23:30:08.671Z,11.60
2019-04-10T23:32:37.491Z,11.60
2019-04-10T23:35:05.876Z,11.60
2019-04-10T23:37:35.033Z,11.60
2019-04-10T23:40:04.938Z,11.60
2019-04-10T23:42:33.307Z,11.60
2019-04-10T23:45:01.760Z,11.60
2019-04-10T23:47:30.184Z,11.50
2019-04-10T23:49:59.618Z,11.50
2019-04-10T23:52:28.077Z,11.50
2019-04-10T23:54:57.542Z,11.50
2019-04-10T23:57:25.892Z,11.50
2019-04-10T23:59:55.040Z,11.40
